Time;durP1;ratioP1;P1;durP2;ratioP2;P2;SDS_P1;SDS_P2;PMS_P1;PMS_P2;Temp;Humidity;BMP_temperature;BMP_pressure;BME280_temperature;BME280_humidity;BME280_pressure;Samples;Min_cycle;Max_cycle;Signal;HPM_P1;HPM_P2
2021/12/28 00:00:06;;;;;;;1.97;1.57;;;7.00;99.90;;;;;;4995956;28;20442;-66
2021/12/28 00:02:31;;;;;;;7.20;1.50;;;7.00;99.90;;;;;;4995969;28;20485;-66
2021/12/28 00:04:57;;;;;;;5.50;1.37;;;6.90;99.90;;;;;;4995730;28;20951;-66
2021/12/28 00:07:22;;;;;;;3.70;1.17;;;6.90;99.90;;;;;;4995745;28;20219;-66
2021/12/28 00:09:48;;;;;;;2.43;1.40;;;6.80;99.90;;;;;;4995770;28;20274;-66
2021/12/28 00:12:14;;;;;;;3.30;1.30;;;6.80;99.90;;;;;;4995795;28;20586;-67
2021/12/28 00:14:48;;;;;;;5.63;1.70;;;6.70;99.90;;;;;;4995778;28;20656;-66
2021/12/28 00:19:58;;;;;;;4.60;1.50;;;6.80;99.90;;;;;;4995795;28;20907;-67
2021/12/28 00:22:24;;;;;;;3.67;1.67;;;6.70;99.90;;;;;;4995593;28;20497;-67
2021/12/28 00:24:50;;;;;;;4.00;1.60;;;6.70;99.90;;;;;;4995435;28;20872;-67
2021/12/28 00:27:16;;;;;;;4.77;1.70;;;6.70;99.90;;;;;;4995329;28;20418;-66
2021/12/28 00:29:42;;;;;;;3.33;1.57;;;6.70;99.90;;;;;;4995467;28;20200;-66
2021/12/28 00:32:08;;;;;;;3.07;1.73;;;6.70;99.90;;;;;;4995454;28;20233;-67
2021/12/28 00:34:34;;;;;;;3.73;1.73;;;6.60;99.90;;;;;;4995327;28;21104;-67
2021/12/28 00:37:00;;;;;;;6.70;1.67;;;6.60;99.90;;;;;;4995024;28;20179;-66
2021/12/28 00:39:26;;;;;;;2.70;1.80;;;6.60;99.90;;;;;;4995204;28;20877;-66
2021/12/28 00:41:51;;;;;;;2.67;1.20;;;6.50;99.90;;;;;;4995262;28;20680;-67
2021/12/28 00:44:18;;;;;;;6.67;1.93;;;6.50;99.90;;;;;;4995157;28;20673;-67
2021/12/28 00:46:44;;;;;;;2.10;1.83;;;6.50;99.90;;;;;;4994934;28;20167;-67
2021/12/28 00:49:10;;;;;;;6.50;1.60;;;6.50;99.90;;;;;;4995105;28;20446;-66
2021/12/28 00:51:37;;;;;;;8.03;2.17;;;6.40;99.90;;;;;;4995048;28;20415;-67
2021/12/28 00:54:03;;;;;;;8.80;1.80;;;6.50;99.90;;;;;;4995008;28;20207;-67
2021/12/28 00:56:29;;;;;;;4.83;1.40;;;6.40;99.90;;;;;;4994720;28;20418;-67
2021/12/28 00:58:54;;;;;;;4.83;2.10;;;6.40;99.90;;;;;;4994899;28;20431;-66
2021/12/28 01:01:20;;;;;;;4.33;1.97;;;6.40;99.90;;;;;;4994952;28;20179;-66
2021/12/28 01:03:45;;;;;;;5.17;1.80;;;6.40;99.90;;;;;;4993888;28;20204;-66
2021/12/28 01:06:11;;;;;;;3.37;1.57;;;6.50;99.90;;;;;;4994492;28;20175;-67
2021/12/28 01:08:38;;;;;;;5.60;2.10;;;6.50;99.90;;;;;;4994790;28;20175;-67
2021/12/28 01:11:05;;;;;;;8.70;2.63;;;6.60;99.90;;;;;;4994729;28;20168;-67
2021/12/28 01:13:31;;;;;;;6.27;1.97;;;6.60;99.90;;;;;;4994765;28;20435;-66
2021/12/28 01:15:56;;;;;;;4.13;2.00;;;6.60;99.90;;;;;;4994380;28;20422;-67
2021/12/28 01:18:23;;;;;;;2.77;1.40;;;6.60;99.90;;;;;;4994620;28;20454;-67
2021/12/28 01:20:50;;;;;;;8.30;2.43;;;6.50;99.90;;;;;;4994339;28;20238;-67
2021/12/28 01:23:16;;;;;;;7.20;1.97;;;6.50;99.90;;;;;;4994435;28;20455;-66
2021/12/28 01:25:42;;;;;;;3.87;1.67;;;6.50;99.90;;;;;;4994209;28;20844;-67
2021/12/28 01:28:08;;;;;;;6.80;2.30;;;6.50;99.90;;;;;;4994428;28;20426;-66
2021/12/28 01:30:34;;;;;;;6.07;2.20;;;6.50;99.90;;;;;;4994361;28;20286;-67
2021/12/28 01:33:01;;;;;;;7.50;1.63;;;6.50;99.90;;;;;;4994339;28;20457;-67
2021/12/28 01:35:29;;;;;;;13.67;2.60;;;6.50;99.90;;;;;;4993951;28;20422;-67
2021/12/28 01:37:55;;;;;;;6.03;1.80;;;6.60;99.90;;;;;;4994246;28;20438;-67
2021/12/28 01:40:26;;;;;;;4.50;2.77;;;6.60;99.90;;;;;;4994195;28;20482;-66
2021/12/28 01:42:57;;;;;;;9.10;4.20;;;6.60;99.90;;;;;;4994106;28;20430;-66
2021/12/28 01:45:38;;;;;;;4.00;1.90;;;6.60;99.90;;;;;;4993715;28;20467;-67
2021/12/28 01:48:05;;;;;;;9.17;2.80;;;6.70;99.90;;;;;;4994097;28;20422;-66
2021/12/28 01:50:32;;;;;;;7.27;2.80;;;6.70;99.90;;;;;;4993935;28;20936;-67
2021/12/28 01:52:57;;;;;;;9.47;2.10;;;6.70;99.90;;;;;;4993896;28;20838;-66
2021/12/28 01:55:23;;;;;;;8.30;4.43;;;6.70;99.90;;;;;;4993715;28;20510;-66
2021/12/28 01:57:49;;;;;;;8.23;2.47;;;6.70;99.90;;;;;;4993829;28;20182;-66
2021/12/28 02:00:15;;;;;;;7.50;2.50;;;6.70;99.90;;;;;;4993807;28;20219;-66
2021/12/28 02:02:41;;;;;;;6.07;2.07;;;6.60;99.90;;;;;;4993823;28;20184;-67
2021/12/28 02:05:07;;;;;;;5.90;2.93;;;6.70;99.90;;;;;;4993354;28;20829;-66
2021/12/28 02:07:33;;;;;;;6.20;2.90;;;6.70;99.90;;;;;;4993689;28;20172;-66
2021/12/28 02:09:58;;;;;;;13.40;5.00;;;6.70;99.90;;;;;;4993618;28;20443;-66
2021/12/28 02:12:24;;;;;;;4.03;2.67;;;6.60;99.90;;;;;;4993617;28;20179;-67
2021/12/28 02:14:49;;;;;;;13.47;2.53;;;6.60;99.90;;;;;;4993338;28;20242;-66
2021/12/28 02:17:15;;;;;;;6.70;2.00;;;6.60;99.90;;;;;;4993305;28;20881;-67
2021/12/28 02:19:42;;;;;;;9.73;3.00;;;6.60;99.90;;;;;;4993242;28;20219;-67
2021/12/28 02:22:08;;;;;;;4.60;1.83;;;6.60;99.90;;;;;;4993507;28;20543;-67
2021/12/28 02:24:33;;;;;;;8.27;2.87;;;6.60;99.90;;;;;;4993355;28;20463;-66
2021/12/28 02:26:59;;;;;;;10.23;2.40;;;6.70;99.90;;;;;;4993010;28;20509;-66
2021/12/28 02:29:25;;;;;;;7.70;2.50;;;6.60;99.90;;;;;;4993172;28;20249;-66
2021/12/28 02:31:55;;;;;;;7.60;2.67;;;6.60;99.90;;;;;;4993221;28;20602;-66
2021/12/28 02:34:25;;;;;;;12.93;3.00;;;6.70;99.90;;;;;;4991873;28;20433;-66
2021/12/28 02:36:51;;;;;;;5.07;2.10;;;6.70;99.90;;;;;;4992878;28;20473;-67
2021/12/28 02:39:17;;;;;;;5.20;2.70;;;6.70;99.90;;;;;;4993144;28;20823;-66
2021/12/28 02:41:42;;;;;;;5.30;2.73;;;6.60;99.90;;;;;;4993071;28;20921;-66
2021/12/28 02:44:08;;;;;;;5.00;2.60;;;6.60;99.90;;;;;;4993002;28;20545;-66
2021/12/28 02:46:34;;;;;;;10.03;2.47;;;6.50;99.90;;;;;;4992740;28;20261;-67
2021/12/28 02:49:01;;;;;;;7.80;2.50;;;6.50;99.90;;;;;;4993031;28;20204;-66
2021/12/28 02:51:26;;;;;;;5.33;2.20;;;6.40;99.90;;;;;;4992933;28;20191;-67
2021/12/28 02:53:52;;;;;;;8.20;2.20;;;6.40;99.90;;;;;;4992891;28;20423;-66
2021/12/28 02:56:19;;;;;;;13.97;2.57;;;6.40;99.90;;;;;;4992607;28;20672;-66
2021/12/28 02:58:47;;;;;;;13.50;2.53;;;6.40;99.90;;;;;;4992746;28;20521;-66
2021/12/28 03:01:25;;;;;;;6.73;3.10;;;6.40;99.90;;;;;;4992809;28;20427;-66
2021/12/28 03:03:55;;;;;;;7.23;2.77;;;6.50;99.90;;;;;;4992753;28;20466;-66
2021/12/28 03:06:23;;;;;;;8.23;2.13;;;6.50;99.90;;;;;;4992451;28;20903;-66
2021/12/28 03:08:54;;;;;;;4.97;2.40;;;6.50;99.90;;;;;;4992789;28;20858;-66
2021/12/28 03:11:22;;;;;;;5.97;2.47;;;6.50;99.90;;;;;;4992703;28;20510;-67
2021/12/28 03:13:50;;;;;;;7.53;4.57;;;6.60;99.90;;;;;;4992453;28;20418;-66
2021/12/28 03:16:17;;;;;;;7.33;2.33;;;6.60;99.90;;;;;;4992589;28;20429;-66
2021/12/28 03:18:43;;;;;;;17.23;3.30;;;6.60;99.90;;;;;;4992336;28;20830;-67
2021/12/28 03:21:12;;;;;;;7.03;2.30;;;6.60;99.90;;;;;;4992610;28;20434;-67
2021/12/28 03:23:38;;;;;;;5.83;2.57;;;6.60;99.90;;;;;;4992521;28;20894;-66
2021/12/28 03:26:05;;;;;;;7.20;2.23;;;6.60;99.90;;;;;;4993189;28;20454;-67
2021/12/28 03:28:33;;;;;;;6.80;2.60;;;6.60;99.90;;;;;;4996858;28;20586;-66
2021/12/28 03:31:00;;;;;;;5.33;2.40;;;6.60;99.90;;;;;;4996513;28;20446;-66
2021/12/28 03:33:29;;;;;;;7.43;2.23;;;6.60;99.90;;;;;;4996567;28;20415;-67
2021/12/28 03:35:55;;;;;;;9.97;2.00;;;6.70;99.90;;;;;;4996113;28;20797;-67
2021/12/28 03:38:22;;;;;;;4.93;2.43;;;6.70;99.90;;;;;;4996525;28;20800;-66
2021/12/28 03:40:47;;;;;;;5.10;2.80;;;6.80;99.90;;;;;;4996403;28;20445;-66
2021/12/28 03:43:13;;;;;;;6.20;1.87;;;6.80;99.90;;;;;;4996259;28;20932;-66
2021/12/28 03:45:39;;;;;;;6.60;2.70;;;6.80;99.90;;;;;;4996211;28;20314;-67
2021/12/28 03:48:05;;;;;;;11.73;2.80;;;6.90;99.90;;;;;;4996325;28;20905;-66
2021/12/28 03:50:33;;;;;;;5.03;2.40;;;6.90;99.90;;;;;;4996147;28;20283;-66
2021/12/28 03:52:58;;;;;;;4.87;1.70;;;6.80;99.90;;;;;;4996240;28;20516;-66
2021/12/28 03:55:26;;;;;;;6.27;2.40;;;6.70;99.90;;;;;;4995820;28;20506;-67
2021/12/28 03:57:52;;;;;;;4.60;2.00;;;6.80;99.90;;;;;;4996098;28;20661;-67
2021/12/28 04:00:20;;;;;;;9.40;3.07;;;6.70;99.90;;;;;;4995958;28;20442;-66
2021/12/28 04:02:47;;;;;;;9.37;2.67;;;6.70;99.90;;;;;;4996013;28;20869;-66
2021/12/28 04:05:13;;;;;;;8.10;2.43;;;6.70;99.90;;;;;;4995532;28;20545;-66
2021/12/28 04:07:39;;;;;;;6.13;2.90;;;6.70;99.90;;;;;;4995915;28;20414;-67
2021/12/28 04:10:08;;;;;;;5.00;2.30;;;6.80;99.90;;;;;;4995794;28;21075;-67
2021/12/28 04:12:35;;;;;;;4.50;2.37;;;6.70;99.90;;;;;;4995822;28;20912;-66
2021/12/28 04:15:00;;;;;;;5.90;2.60;;;6.70;99.90;;;;;;4995642;28;21006;-67
2021/12/28 04:17:28;;;;;;;7.20;1.73;;;6.80;99.90;;;;;;4995738;28;20430;-66
2021/12/28 04:19:54;;;;;;;5.80;2.03;;;6.80;99.90;;;;;;5014209;23;20249;-66
2021/12/28 04:22:20;;;;;;;10.50;3.97;;;6.80;99.90;;;;;;5015185;28;20422;-66
2021/12/28 04:24:47;;;;;;;8.97;2.27;;;6.90;99.90;;;;;;5015100;28;20492;-66
2021/12/28 04:27:12;;;;;;;6.70;1.97;;;6.90;99.90;;;;;;5014976;28;20632;-66
2021/12/28 04:29:38;;;;;;;8.00;3.27;;;6.90;99.90;;;;;;5009944;28;20485;-66
2021/12/28 04:32:04;;;;;;;9.10;2.23;;;6.90;99.90;;;;;;4995462;28;20637;-66
2021/12/28 04:34:29;;;;;;;6.27;2.60;;;6.90;99.90;;;;;;4995430;28;20202;-66
2021/12/28 04:36:55;;;;;;;3.73;2.00;;;6.90;99.90;;;;;;4994723;28;20454;-66
2021/12/28 04:39:21;;;;;;;10.90;2.70;;;6.80;99.90;;;;;;4994433;28;20195;-66
2021/12/28 04:41:46;;;;;;;9.30;2.87;;;6.80;99.90;;;;;;4995374;28;20180;-66
2021/12/28 04:44:13;;;;;;;9.87;2.37;;;6.80;99.90;;;;;;4995340;28;20191;-66
2021/12/28 04:46:40;;;;;;;4.10;1.80;;;6.70;99.90;;;;;;4994969;28;20222;-66
2021/12/28 04:49:05;;;;;;;5.60;2.30;;;6.80;99.90;;;;;;4995161;28;20460;-66
2021/12/28 04:51:31;;;;;;;6.80;3.30;;;6.70;99.90;;;;;;4995062;28;20411;-66
2021/12/28 04:54:00;;;;;;;3.23;1.70;;;6.70;99.90;;;;;;4995130;28;20270;-66
2021/12/28 04:56:25;;;;;;;3.97;1.73;;;6.70;99.90;;;;;;4994810;28;20415;-66
2021/12/28 04:58:51;;;;;;;3.73;2.30;;;6.70;99.90;;;;;;4994930;28;20421;-66
2021/12/28 05:01:17;;;;;;;6.77;2.83;;;6.60;99.90;;;;;;5010032;28;20222;-66
2021/12/28 05:03:42;;;;;;;5.30;2.30;;;6.60;99.90;;;;;;4994996;28;20199;-66
2021/12/28 05:06:08;;;;;;;8.90;2.50;;;6.60;99.90;;;;;;4994584;28;20251;-66
2021/12/28 05:08:33;;;;;;;5.03;2.50;;;6.60;99.90;;;;;;4994849;28;20684;-65
2021/12/28 05:10:59;;;;;;;4.13;2.00;;;6.60;99.90;;;;;;4994724;28;20279;-66
2021/12/28 05:13:25;;;;;;;5.60;2.20;;;6.60;99.90;;;;;;4994576;28;20172;-66
2021/12/28 05:15:52;;;;;;;5.40;1.70;;;6.50;99.90;;;;;;4994477;28;20198;-66
2021/12/28 05:18:18;;;;;;;4.97;2.40;;;6.50;99.90;;;;;;4994640;28;20171;-66
2021/12/28 05:20:45;;;;;;;5.80;3.00;;;6.50;99.90;;;;;;4994488;28;20458;-65
2021/12/28 05:23:11;;;;;;;7.30;3.00;;;6.50;99.90;;;;;;4994574;28;20481;-66
2021/12/28 05:25:38;;;;;;;7.57;2.73;;;6.50;99.90;;;;;;5009413;28;20712;-66
2021/12/28 05:28:05;;;;;;;9.07;2.30;;;6.50;99.90;;;;;;4994409;28;20430;-65
2021/12/28 05:30:32;;;;;;;4.10;1.60;;;6.50;99.90;;;;;;4994365;28;20470;-66
2021/12/28 05:32:58;;;;;;;3.97;2.57;;;6.50;99.90;;;;;;4994330;28;20410;-65
2021/12/28 05:35:24;;;;;;;6.53;1.73;;;6.50;99.90;;;;;;4994055;28;20509;-66
2021/12/28 05:37:50;;;;;;;8.60;2.77;;;6.60;99.90;;;;;;4994326;28;20656;-66
2021/12/28 05:40:16;;;;;;;6.80;2.57;;;6.60;99.90;;;;;;4994167;28;20493;-66
2021/12/28 05:42:42;;;;;;;5.37;1.77;;;6.60;99.90;;;;;;4994138;28;20637;-66
2021/12/28 05:45:08;;;;;;;6.13;1.97;;;6.60;99.90;;;;;;4993779;28;20454;-66
2021/12/28 05:47:35;;;;;;;9.40;3.53;;;6.70;99.90;;;;;;4994105;28;20179;-66
2021/12/28 05:50:01;;;;;;;7.37;2.50;;;6.70;99.90;;;;;;4993704;28;20803;-66
2021/12/28 05:52:27;;;;;;;5.90;2.07;;;6.70;99.90;;;;;;4993985;28;20425;-66
2021/12/28 05:54:52;;;;;;;2.20;1.57;;;6.70;99.90;;;;;;4993928;28;20525;-66
2021/12/28 05:57:18;;;;;;;3.27;1.80;;;6.80;99.90;;;;;;4993532;28;20183;-66
2021/12/28 05:59:44;;;;;;;6.00;2.37;;;6.80;99.90;;;;;;4993734;28;20195;-66
2021/12/28 06:02:09;;;;;;;6.37;2.23;;;6.80;99.90;;;;;;4993829;28;20180;-66
2021/12/28 06:04:35;;;;;;;4.83;2.00;;;6.80;99.90;;;;;;4993794;28;20629;-65
2021/12/28 06:07:01;;;;;;;6.17;2.50;;;6.80;99.90;;;;;;4993570;28;20202;-65
2021/12/28 06:09:27;;;;;;;5.43;3.50;;;6.90;99.90;;;;;;4993620;28;20798;-66
2021/12/28 06:11:52;;;;;;;3.10;2.20;;;6.90;99.90;;;;;;4993595;28;20230;-65
2021/12/28 06:14:18;;;;;;;2.63;2.27;;;6.90;99.90;;;;;;4993589;28;20505;-66
2021/12/28 06:16:44;;;;;;;4.03;1.93;;;6.90;99.90;;;;;;4993279;28;20179;-65
2021/12/28 06:19:09;;;;;;;5.57;2.87;;;6.90;99.90;;;;;;4993388;28;20226;-66
2021/12/28 06:21:36;;;;;;;6.10;2.33;;;6.90;99.90;;;;;;4993474;28;20184;-66
2021/12/28 06:24:03;;;;;;;3.43;2.67;;;6.90;99.90;;;;;;4993412;28;20231;-65
2021/12/28 06:26:31;;;;;;;4.03;1.80;;;6.90;99.90;;;;;;4992945;28;20450;-65
2021/12/28 06:28:58;;;;;;;5.70;1.87;;;6.90;99.90;;;;;;4993345;28;20434;-65
2021/12/28 06:31:28;;;;;;;5.30;2.30;;;7.00;99.90;;;;;;4993160;28;20449;-65
2021/12/28 06:33:54;;;;;;;3.93;1.40;;;7.00;99.90;;;;;;4993374;28;20433;-65
2021/12/28 06:36:20;;;;;;;1.83;1.43;;;7.10;99.90;;;;;;4992920;28;20536;-65
2021/12/28 06:38:45;;;;;;;2.40;1.57;;;7.10;99.90;;;;;;4993113;28;20427;-65
2021/12/28 06:41:11;;;;;;;2.33;1.20;;;7.10;99.90;;;;;;4992982;28;20672;-65
2021/12/28 06:43:36;;;;;;;2.80;1.53;;;7.20;99.90;;;;;;4993044;28;20775;-65
2021/12/28 06:46:02;;;;;;;3.20;1.27;;;7.20;99.90;;;;;;4992722;28;20251;-65
2021/12/28 06:48:27;;;;;;;1.90;1.27;;;7.20;99.90;;;;;;4992992;28;20660;-65
2021/12/28 06:50:53;;;;;;;2.50;1.23;;;7.20;99.90;;;;;;4992990;28;20665;-65
2021/12/28 06:53:19;;;;;;;2.30;1.30;;;7.20;99.90;;;;;;4992917;28;20225;-65
2021/12/28 06:55:44;;;;;;;3.63;1.23;;;7.30;99.90;;;;;;4992611;28;20179;-65
2021/12/28 06:58:10;;;;;;;1.60;1.10;;;7.30;99.90;;;;;;4992936;28;20185;-65
2021/12/28 07:00:37;;;;;;;4.13;2.57;;;7.30;99.90;;;;;;4992019;28;20191;-65
2021/12/28 07:03:04;;;;;;;9.67;1.43;;;7.30;99.90;;;;;;4992862;28;20175;-65
2021/12/28 07:05:29;;;;;;;2.50;1.43;;;7.30;99.90;;;;;;4992503;28;20466;-66
2021/12/28 07:07:55;;;;;;;1.70;0.80;;;7.40;99.90;;;;;;4992735;28;20540;-65
2021/12/28 07:10:21;;;;;;;1.20;1.10;;;7.40;99.90;;;;;;4992608;28;20199;-66
2021/12/28 07:12:51;;;;;;;1.20;1.03;;;7.50;99.90;;;;;;4992719;28;20180;-66
2021/12/28 07:15:18;;;;;;;2.03;1.20;;;7.50;99.90;;;;;;4992505;28;20202;-65
2021/12/28 07:17:44;;;;;;;2.40;1.10;;;7.50;99.90;;;;;;4992742;28;20418;-65
2021/12/28 07:20:10;;;;;;;1.60;1.20;;;7.50;99.90;;;;;;4992640;28;20470;-66
2021/12/28 07:22:36;;;;;;;1.40;1.30;;;7.50;99.90;;;;;;4992584;28;20438;-66
2021/12/28 07:25:03;;;;;;;1.33;0.90;;;7.60;99.90;;;;;;4992271;28;20470;-65
2021/12/28 07:27:30;;;;;;;1.00;0.90;;;7.60;99.90;;;;;;4992551;28;20901;-65
2021/12/28 07:29:55;;;;;;;2.23;1.10;;;7.70;99.90;;;;;;4992488;28;20496;-65
2021/12/28 07:32:21;;;;;;;1.30;1.20;;;7.70;99.90;;;;;;4992552;28;20431;-66
2021/12/28 07:34:46;;;;;;;1.43;1.33;;;7.70;99.90;;;;;;4992514;28;20191;-65
2021/12/28 07:37:12;;;;;;;1.03;0.97;;;7.80;99.90;;;;;;4992159;28;20234;-65
2021/12/28 07:39:38;;;;;;;1.77;0.93;;;7.80;99.90;;;;;;4992418;28;20231;-65
2021/12/28 07:42:04;;;;;;;3.60;1.00;;;7.80;99.90;;;;;;4992378;28;20182;-65
2021/12/28 07:44:29;;;;;;;0.73;0.73;;;7.80;99.90;;;;;;4992315;28;20652;-65
2021/12/28 07:46:55;;;;;;;0.83;0.83;;;7.80;99.90;;;;;;4992129;28;20455;-65
2021/12/28 07:49:21;;;;;;;0.70;0.70;;;7.80;99.90;;;;;;4992314;28;20692;-66
2021/12/28 07:51:47;;;;;;;0.80;0.80;;;7.90;99.90;;;;;;4992340;28;20649;-66
2021/12/28 07:54:12;;;;;;;4.17;1.00;;;8.10;99.90;;;;;;4992431;28;20214;-65
2021/12/28 07:56:38;;;;;;;0.97;0.80;;;8.60;99.90;;;;;;4992151;28;20822;-65
2021/12/28 07:59:04;;;;;;;0.70;0.60;;;9.00;99.90;;;;;;4992230;28;20835;-66
2021/12/28 08:01:34;;;;;;;0.80;0.80;;;8.90;99.90;;;;;;5006998;28;20184;-66
2021/12/28 08:03:59;;;;;;;1.50;0.97;;;8.70;99.90;;;;;;4992245;28;20454;-66
2021/12/28 08:06:25;;;;;;;0.97;0.90;;;8.60;99.90;;;;;;4991860;28;20430;-66
2021/12/28 08:08:50;;;;;;;1.63;1.10;;;8.40;99.90;;;;;;4992225;28;20167;-66
2021/12/28 08:11:16;;;;;;;0.67;0.60;;;8.20;99.90;;;;;;4992165;28;20222;-66
2021/12/28 08:13:42;;;;;;;0.90;0.70;;;8.10;99.90;;;;;;4995427;28;20172;-66
2021/12/28 08:16:07;;;;;;;0.93;0.90;;;8.10;99.90;;;;;;4995576;28;20175;-65
2021/12/28 08:18:33;;;;;;;0.73;0.73;;;8.00;99.90;;;;;;4995787;28;20660;-65
2021/12/28 08:20:58;;;;;;;0.90;0.70;;;8.10;99.90;;;;;;4995502;28;20258;-65
2021/12/28 08:23:24;;;;;;;0.70;0.70;;;8.10;99.90;;;;;;4995792;28;20704;-68
2021/12/28 08:25:50;;;;;;;2.70;0.80;;;8.10;99.90;;;;;;4995394;28;20575;-66
2021/12/28 08:28:16;;;;;;;2.10;0.70;;;8.10;99.90;;;;;;4995598;28;20595;-66
2021/12/28 08:30:42;;;;;;;0.77;0.63;;;8.20;99.90;;;;;;4995441;28;20439;-66
2021/12/28 08:33:08;;;;;;;1.83;0.80;;;8.20;99.90;;;;;;4995481;28;20176;-66
2021/12/28 08:35:36;;;;;;;1.47;0.80;;;8.20;99.90;;;;;;4995095;28;20446;-65
2021/12/28 08:38:02;;;;;;;0.80;0.70;;;8.20;99.90;;;;;;4995432;28;20453;-66
2021/12/28 08:40:27;;;;;;;0.57;0.53;;;8.30;99.90;;;;;;4995643;28;20442;-66
2021/12/28 08:42:53;;;;;;;0.90;0.90;;;8.30;99.90;;;;;;4995292;28;20171;-66
2021/12/28 08:45:19;;;;;;;0.73;0.73;;;8.30;99.90;;;;;;4994887;28;20211;-66
2021/12/28 08:47:47;;;;;;;1.20;0.80;;;8.30;99.90;;;;;;4995252;28;20168;-66
2021/12/28 08:50:14;;;;;;;0.90;0.70;;;8.40;99.90;;;;;;4995079;28;20849;-66
2021/12/28 08:52:40;;;;;;;0.90;0.60;;;8.40;99.90;;;;;;4995211;28;20476;-65
2021/12/28 08:55:06;;;;;;;0.50;0.50;;;8.40;99.90;;;;;;4994951;28;20828;-65
2021/12/28 08:57:32;;;;;;;1.53;0.60;;;8.40;99.90;;;;;;4994976;28;20422;-65
2021/12/28 08:59:57;;;;;;;0.60;0.60;;;8.40;99.90;;;;;;4994944;28;20800;-66
2021/12/28 09:02:23;;;;;;;5.20;0.70;;;8.70;99.90;;;;;;4994949;28;20663;-65
2021/12/28 09:04:49;;;;;;;0.90;0.70;;;9.00;99.90;;;;;;4994696;28;20234;-65
2021/12/28 09:07:16;;;;;;;0.90;0.50;;;9.00;99.90;;;;;;4994578;28;20419;-65
2021/12/28 09:09:43;;;;;;;0.80;0.60;;;8.90;99.90;;;;;;4994894;28;20588;-67
2021/12/28 09:12:09;;;;;;;0.70;0.70;;;8.80;99.90;;;;;;4994760;28;21020;-66
2021/12/28 09:14:34;;;;;;;0.67;0.60;;;8.70;99.90;;;;;;4995432;28;20421;-66
2021/12/28 09:17:01;;;;;;;1.70;0.60;;;8.70;99.90;;;;;;4994616;28;20418;-66
2021/12/28 09:19:26;;;;;;;1.07;0.97;;;8.70;99.90;;;;;;4994504;28;20206;-66
2021/12/28 09:21:52;;;;;;;0.67;0.63;;;8.80;99.90;;;;;;4994594;28;20779;-66
2021/12/28 09:24:17;;;;;;;1.07;0.60;;;8.90;99.90;;;;;;4993702;28;20223;-68
2021/12/28 09:26:43;;;;;;;0.60;0.60;;;9.00;99.90;;;;;;4994278;28;20250;-66
2021/12/28 09:29:09;;;;;;;3.10;0.90;;;9.10;99.90;;;;;;4994372;28;20207;-67
2021/12/28 09:31:35;;;;;;;1.17;1.00;;;9.50;99.90;;;;;;4994468;28;20238;-67
2021/12/28 09:34:00;;;;;;;0.80;0.60;;;9.70;99.90;;;;;;4995059;28;20426;-66
2021/12/28 09:36:26;;;;;;;1.00;0.90;;;9.90;99.90;;;;;;4994347;28;20179;-66
2021/12/28 09:38:52;;;;;;;1.00;0.90;;;10.10;99.90;;;;;;4994369;28;20179;-66
2021/12/28 09:41:18;;;;;;;1.60;1.00;;;9.90;99.90;;;;;;4994350;28;20932;-66
2021/12/28 09:43:45;;;;;;;0.60;0.60;;;9.80;99.90;;;;;;4994062;28;20207;-66
2021/12/28 09:46:11;;;;;;;1.23;0.90;;;9.70;99.90;;;;;;4993930;28;20175;-65
2021/12/28 09:48:37;;;;;;;0.70;0.70;;;9.60;99.90;;;;;;4994019;28;20422;-66
2021/12/28 09:51:04;;;;;;;0.60;0.60;;;9.60;99.90;;;;;;4994169;28;20282;-66
2021/12/28 09:53:30;;;;;;;1.03;0.70;;;9.80;99.90;;;;;;4994310;28;20418;-65
2021/12/28 09:55:56;;;;;;;0.80;0.70;;;10.20;99.90;;;;;;4993750;28;20705;-66
2021/12/28 09:58:21;;;;;;;1.00;0.80;;;10.30;99.90;;;;;;4993905;28;20541;-66
2021/12/28 10:00:47;;;;;;;0.83;0.80;;;10.40;99.90;;;;;;4993787;28;20196;-66
2021/12/28 10:03:14;;;;;;;1.17;0.80;;;10.40;99.90;;;;;;4993863;28;20226;-66
2021/12/28 10:05:40;;;;;;;1.30;1.10;;;10.50;99.90;;;;;;4992177;28;20274;-65
2021/12/28 10:08:06;;;;;;;0.90;0.80;;;11.00;99.90;;;;;;4993748;28;20415;-66
2021/12/28 10:10:43;;;;;;;0.90;0.80;;;12.50;99.90;;;;;;4993607;28;20226;-65
2021/12/28 10:13:21;;;;;;;0.83;0.83;;;13.70;99.90;;;;;;4993658;28;20419;-67
2021/12/28 10:15:49;;;;;;;0.87;0.87;;;13.60;99.90;;;;;;4993278;28;20919;-66
2021/12/28 10:18:15;;;;;;;1.13;0.67;;;13.40;99.90;;;;;;4993526;28;20986;-66
2021/12/28 10:20:47;;;;;;;0.83;0.63;;;13.00;99.90;;;;;;4993785;28;20486;-65
2021/12/28 10:23:16;;;;;;;0.80;0.63;;;12.50;99.90;;;;;;4993556;28;20521;-66
2021/12/28 10:25:48;;;;;;;1.00;0.80;;;11.80;99.90;;;;;;4993005;28;20454;-65
2021/12/28 10:28:19;;;;;;;0.90;0.77;;;11.30;99.90;;;;;;4993409;28;20442;-65
2021/12/28 10:30:53;;;;;;;0.83;0.70;;;11.00;99.90;;;;;;4993324;28;20529;-65
2021/12/28 10:33:22;;;;;;;0.77;0.67;;;11.10;99.90;;;;;;4993317;28;20411;-65
2021/12/28 10:35:51;;;;;;;1.10;0.80;;;11.10;99.90;;;;;;4992871;28;20428;-65
2021/12/28 10:38:21;;;;;;;0.87;0.80;;;11.00;99.90;;;;;;4993331;28;20449;-67
2021/12/28 10:40:50;;;;;;;0.80;0.60;;;11.40;99.90;;;;;;4993014;28;20540;-66
2021/12/28 10:43:21;;;;;;;1.10;0.60;;;11.80;99.90;;;;;;4993150;28;20425;-65
2021/12/28 10:46:00;;;;;;;0.90;0.60;;;13.00;99.90;;;;;;4992772;28;20987;-66
2021/12/28 10:48:28;;;;;;;3.03;2.53;;;13.40;99.90;;;;;;4993186;28;20493;-66
2021/12/28 10:51:02;;;;;;;0.93;0.70;;;12.90;99.90;;;;;;4993151;28;20438;-65
2021/12/28 10:53:38;;;;;;;1.00;0.70;;;12.60;99.90;;;;;;4992983;28;20419;-65
2021/12/28 10:56:07;;;;;;;0.90;0.60;;;12.20;99.90;;;;;;4992645;28;20425;-66
2021/12/28 10:58:41;;;;;;;0.90;0.80;;;11.90;99.90;;;;;;4992953;28;20419;-65
2021/12/28 11:01:19;;;;;;;0.70;0.70;;;12.00;99.90;;;;;;4992836;28;20947;-65
2021/12/28 11:03:48;;;;;;;0.73;0.73;;;12.10;99.90;;;;;;4992852;28;20462;-66
2021/12/28 11:06:18;;;;;;;0.80;0.80;;;13.70;99.90;;;;;;4992634;28;20481;-66
2021/12/28 11:08:46;;;;;;;0.80;0.80;;;14.90;99.90;;;;;;4992831;28;20781;-65
2021/12/28 11:11:14;;;;;;;1.87;1.77;;;15.10;99.90;;;;;;4992749;28;20963;-65
2021/12/28 11:13:40;;;;;;;0.90;0.90;;;14.40;99.90;;;;;;4992696;28;20430;-65
2021/12/28 11:16:08;;;;;;;0.70;0.70;;;14.70;99.90;;;;;;4992406;28;20437;-66
2021/12/28 11:18:43;;;;;;;0.90;0.70;;;15.90;99.90;;;;;;4992674;28;20447;-65
2021/12/28 11:21:27;;;;;;;1.10;0.80;;;17.00;99.90;;;;;;4992486;28;20457;-65
2021/12/28 11:23:56;;;;;;;0.90;0.90;;;16.50;99.90;;;;;;4992591;28;20459;-65
2021/12/28 11:26:31;;;;;;;1.00;0.87;;;15.90;99.90;;;;;;4992203;28;20421;-65
2021/12/28 11:29:00;;;;;;;1.30;1.20;;;16.10;99.90;;;;;;4992598;28;20560;-65
2021/12/28 11:31:38;;;;;;;1.77;1.30;;;15.90;99.90;;;;;;4992483;28;20762;-66
2021/12/28 11:34:25;;;;;;;0.90;0.90;;;14.90;99.90;;;;;;4992514;28;20421;-66
2021/12/28 11:37:10;;;;;;;0.77;0.77;;;14.20;99.90;;;;;;4992253;28;20429;-65
2021/12/28 11:40:01;;;;;;;0.80;0.80;;;13.50;99.90;;;;;;4992443;28;20814;-66
2021/12/28 11:42:28;;;;;;;0.80;0.70;;;13.00;99.90;;;;;;4992126;28;20811;-65
2021/12/28 11:44:54;;;;;;;0.70;0.70;;;12.70;99.90;;;;;;4992248;28;20454;-65
2021/12/28 11:47:22;;;;;;;0.70;0.70;;;12.40;99.90;;;;;;4993453;28;20457;-67
2021/12/28 11:49:49;;;;;;;0.63;0.60;;;12.30;99.90;;;;;;4996303;28;20278;-65
2021/12/28 11:52:18;;;;;;;1.20;0.80;;;12.30;99.90;;;;;;4996302;28;20426;-65
2021/12/28 11:54:47;;;;;;;0.67;0.67;;;12.20;99.90;;;;;;4996170;28;20942;-65
2021/12/28 11:57:18;;;;;;;1.60;0.80;;;12.10;99.90;;;;;;4995857;28;20426;-65
2021/12/28 12:00:03;;;;;;;0.93;0.90;;;12.00;99.90;;;;;;4996018;28;20438;-65
2021/12/28 12:02:47;;;;;;;0.90;0.80;;;11.90;99.90;;;;;;4996184;28;20937;-66
2021/12/28 12:05:13;;;;;;;0.73;0.73;;;11.80;99.90;;;;;;4995722;28;20468;-66
2021/12/28 12:07:39;;;;;;;1.43;0.70;;;11.70;99.90;;;;;;4996131;28;20494;-65
2021/12/28 12:10:13;;;;;;;5.67;0.93;;;11.60;99.90;;;;;;4995787;28;20189;-65
2021/12/28 12:12:53;;;;;;;2.20;1.87;;;11.50;99.90;;;;;;4995966;28;20429;-66
2021/12/28 12:15:18;;;;;;;2.90;1.20;;;11.30;99.90;;;;;;4995393;28;21363;-66
2021/12/28 12:17:47;;;;;;;1.67;1.10;;;11.20;99.90;;;;;;4995746;28;20423;-66
2021/12/28 12:20:19;;;;;;;0.80;0.80;;;11.00;99.90;;;;;;4995627;28;20254;-65
2021/12/28 12:23:12;;;;;;;2.63;1.73;;;11.00;99.90;;;;;;4995764;28;20418;-65
2021/12/28 12:26:00;;;;;;;1.47;1.33;;;11.00;99.90;;;;;;4995289;28;20468;-65
2021/12/28 12:28:41;;;;;;;2.40;1.13;;;10.90;99.90;;;;;;4995535;28;20447;-67
2021/12/28 12:31:19;;;;;;;1.00;0.90;;;10.90;99.90;;;;;;4995577;28;20443;-65
2021/12/28 12:33:44;;;;;;;1.70;0.90;;;10.90;99.90;;;;;;4995551;28;20418;-65
2021/12/28 12:36:37;;;;;;;1.30;1.20;;;10.90;99.90;;;;;;4995173;28;20422;-65
2021/12/28 12:39:05;;;;;;;1.20;0.90;;;10.80;99.90;;;;;;4995390;28;20252;-66
2021/12/28 12:41:44;;;;;;;1.47;1.17;;;10.80;99.90;;;;;;4995320;28;20423;-67
2021/12/28 12:44:18;;;;;;;0.83;0.80;;;10.80;99.90;;;;;;4993916;28;20458;-66
2021/12/28 12:46:47;;;;;;;1.10;1.00;;;10.90;99.90;;;;;;4995118;28;20464;-65
2021/12/28 12:49:20;;;;;;;1.37;1.00;;;10.90;99.90;;;;;;4995126;28;20415;-66
2021/12/28 12:51:49;;;;;;;1.03;0.93;;;10.90;99.90;;;;;;4995276;28;20418;-66
2021/12/28 12:54:25;;;;;;;0.90;0.90;;;10.90;99.90;;;;;;4995136;28;20494;-65
2021/12/28 12:56:51;;;;;;;0.80;0.80;;;10.90;99.90;;;;;;4994869;28;20431;-65
2021/12/28 12:59:17;;;;;;;0.80;0.80;;;11.00;99.90;;;;;;4993771;28;20414;-65